Time;durP1;ratioP1;P1;durP2;ratioP2;P2;SDS_P1;SDS_P2;PMS_P1;PMS_P2;Temp;Humidity;BMP_temperature;BMP_pressure;BME280_temperature;BME280_humidity;BME280_pressure;Samples;Min_cycle;Max_cycle;Signal;HPM_P1;HPM_P2
2022/01/23 00:00:19;;;;;;;45.88;22.40;;;5.10;99.90;;;5.10;81.54;102491.16;5041306;28;20192;-72
2022/01/23 00:02:51;;;;;;;49.00;24.65;;;5.10;99.90;;;5.10;81.73;102488.50;5039881;28;20185;-72
2022/01/23 00:05:21;;;;;;;48.63;26.10;;;5.00;99.90;;;5.07;82.00;102486.94;5040737;28;20209;-70
2022/01/23 00:07:51;;;;;;;55.17;27.42;;;5.00;99.90;;;5.17;81.65;102484.31;5047003;28;20228;-71
2022/01/23 00:10:21;;;;;;;48.80;25.52;;;5.00;99.90;;;5.23;81.76;102492.69;5036382;28;20221;-73
2022/01/23 00:12:54;;;;;;;63.83;33.45;;;5.10;99.90;;;5.18;82.08;102502.13;5033603;28;20196;-70
2022/01/23 00:18:08;;;;;;;49.92;24.08;;;5.10;99.90;;;5.24;81.82;102499.78;5031821;28;20225;-72
2022/01/23 00:20:37;;;;;;;42.95;21.75;;;5.10;99.90;;;5.33;81.76;102494.59;5032087;28;20706;-72
2022/01/23 00:23:14;;;;;;;48.15;26.42;;;5.20;99.90;;;5.29;81.74;102494.03;5033555;28;20657;-72
2022/01/23 00:31:19;;;;;;;22.40;15.43;;;5.20;99.90;;;5.29;81.94;102485.97;5035059;28;20264;-72
2022/01/23 00:33:48;;;;;;;24.85;16.27;;;5.20;99.90;;;5.35;82.11;102490.81;5034590;28;20193;-73
2022/01/23 00:36:16;;;;;;;24.55;16.20;;;5.20;99.90;;;5.30;82.17;102487.69;5034882;28;20236;-72
2022/01/23 00:38:45;;;;;;;33.45;18.73;;;5.30;99.90;;;5.26;82.36;102496.97;5034396;28;20205;-73
2022/01/23 00:41:17;;;;;;;41.45;22.02;;;5.20;99.90;;;5.31;82.19;102499.28;5033699;28;20603;-73
2022/01/23 00:43:46;;;;;;;36.88;21.02;;;5.30;99.90;;;5.38;82.23;102490.56;5035431;28;20632;-74
2022/01/23 00:46:29;;;;;;;27.80;16.90;;;5.30;99.90;;;5.40;82.56;102493.97;5034545;28;20197;-72
2022/01/23 00:51:48;;;;;;;31.65;18.98;;;5.30;99.90;;;5.24;82.88;102493.56;5032994;28;20486;-72
2022/01/23 00:54:16;;;;;;;29.77;16.08;;;5.20;99.90;;;5.41;82.97;102493.00;5037053;28;20329;-72
2022/01/23 00:56:46;;;;;;;41.75;21.20;;;5.30;99.90;;;5.37;82.50;102488.88;5034843;28;20170;-72
2022/01/23 00:59:15;;;;;;;28.70;15.95;;;5.30;99.90;;;5.44;82.27;102492.72;5032783;28;20624;-72
2022/01/23 01:01:43;;;;;;;32.45;16.23;;;5.30;99.90;;;5.38;82.21;102481.66;5033861;28;20747;-71
2022/01/23 01:04:12;;;;;;;26.48;16.77;;;5.30;99.90;;;5.41;82.57;102478.72;5033274;28;20474;-72
2022/01/23 01:06:41;;;;;;;30.33;16.60;;;5.30;99.90;;;5.39;82.63;102477.97;5032609;28;20202;-73
2022/01/23 01:09:12;;;;;;;38.78;17.80;;;5.30;99.90;;;5.39;82.85;102469.94;5034095;28;20267;-74
2022/01/23 01:11:57;;;;;;;41.13;18.13;;;5.30;99.90;;;5.30;83.14;102468.88;5034509;28;20628;-72
2022/01/23 01:17:28;;;;;;;34.33;17.35;;;5.40;99.90;;;5.36;83.19;102468.38;5017394;28;20614;-72
2022/01/23 01:31:09;;;;;;;15.70;9.93;;;5.30;99.90;;;5.16;83.99;102482.63;5049359;28;20576;-72
2022/01/23 01:33:46;;;;;;;20.13;11.73;;;5.20;99.90;;;5.21;84.05;102491.13;5033916;28;20165;-71
2022/01/23 01:36:26;;;;;;;14.50;10.57;;;5.20;99.90;;;5.11;84.63;102500.94;5032242;28;20240;-73
2022/01/23 01:39:01;;;;;;;13.88;8.85;;;5.10;99.90;;;5.18;84.64;102505.66;5031710;28;20815;-72
2022/01/23 01:41:29;;;;;;;11.85;8.93;;;5.10;99.90;;;5.11;84.30;102506.31;5033428;28;20296;-72
2022/01/23 01:43:59;;;;;;;20.10;10.95;;;5.10;99.90;;;5.17;84.74;102509.34;5032041;28;20189;-72
2022/01/23 01:46:47;;;;;;;16.25;9.85;;;5.20;99.90;;;5.16;84.39;102507.63;5033081;28;20204;-72
2022/01/23 01:49:22;;;;;;;14.50;9.82;;;5.10;99.90;;;5.19;84.67;102501.13;5031389;28;20213;-72
2022/01/23 01:51:52;;;;;;;22.95;12.38;;;5.10;99.90;;;5.20;84.46;102492.13;5031757;28;20287;-72
2022/01/23 01:54:23;;;;;;;15.32;9.32;;;5.20;99.90;;;5.21;84.52;102483.94;5031988;28;20182;-72
2022/01/23 01:57:02;;;;;;;21.13;12.32;;;5.20;99.90;;;5.20;84.61;102486.75;5030377;28;20235;-72
2022/01/23 01:59:49;;;;;;;15.80;9.63;;;5.20;99.90;;;5.20;84.71;102486.75;5031756;28;20205;-72
2022/01/23 02:02:51;;;;;;;15.45;9.55;;;5.20;99.90;;;5.19;84.92;102490.41;5031867;28;20260;-72
2022/01/23 02:08:24;;;;;;;15.85;10.60;;;5.10;99.90;;;5.35;84.58;102487.28;5047207;28;20311;-73
2022/01/23 02:11:00;;;;;;;27.45;13.30;;;5.20;99.90;;;5.36;84.15;102497.91;5031847;28;20174;-71
2022/01/23 02:13:32;;;;;;;18.88;11.40;;;5.30;99.90;;;5.30;84.03;102487.69;5030350;28;20235;-72
2022/01/23 02:16:29;;;;;;;16.52;10.63;;;5.30;99.90;;;5.31;84.37;102491.22;5029907;28;20566;-73
2022/01/23 02:25:17;;;;;;;22.27;12.65;;;5.20;99.90;;;5.44;84.05;102495.41;5046847;28;20197;-73
2022/01/23 02:52:57;;;;;;;18.20;11.40;;;5.30;99.90;;;5.31;83.94;102494.75;5046987;28;20193;-71
2022/01/23 02:55:34;;;;;;;16.42;8.90;;;5.30;99.90;;;5.24;83.87;102477.44;5030009;28;20512;-74
2022/01/23 02:58:06;;;;;;;17.58;10.02;;;5.30;99.90;;;5.34;84.07;102489.13;5029646;28;20265;-71
2022/01/23 03:00:47;;;;;;;19.42;11.00;;;5.30;99.90;;;5.45;83.40;102485.53;5029867;28;20272;-72
2022/01/23 03:03:42;;;;;;;20.23;11.95;;;5.30;99.90;;;5.43;83.29;102490.16;5030898;28;20628;-72
2022/01/23 03:06:56;;;;;;;26.08;10.95;;;5.30;99.90;;;5.45;83.22;102491.75;5007560;28;20331;-72
2022/01/23 03:12:53;;;;;;;11.95;8.45;;;5.40;99.90;;;5.32;83.05;102496.47;5031037;28;20176;-73
2022/01/23 03:15:11;;;;;;;16.52;8.90;;;5.30;99.90;;;5.32;83.31;102501.84;5030927;28;20670;-72
2022/01/23 03:26:15;;;;;;;20.75;11.60;;;5.20;99.90;;;5.38;83.11;102522.78;5030604;28;20205;-71
2022/01/23 03:31:43;;;;;;;11.40;7.82;;;5.20;99.90;;;5.25;83.12;102517.59;5025831;28;20252;-72
2022/01/23 03:34:12;;;;;;;22.35;11.63;;;5.20;99.90;;;5.29;83.35;102518.19;5032638;28;20188;-72
2022/01/23 03:36:40;;;;;;;14.45;9.50;;;5.20;99.90;;;5.20;83.34;102513.59;5030974;28;20181;-71
2022/01/23 03:39:09;;;;;;;21.38;11.75;;;5.20;99.90;;;5.16;83.82;102517.50;5032395;28;20676;-72
2022/01/23 03:41:41;;;;;;;23.20;13.10;;;5.10;99.90;;;5.19;83.72;102522.59;5031103;28;20560;-71
2022/01/23 03:44:16;;;;;;;21.30;10.90;;;5.10;99.90;;;5.36;83.32;102514.00;5030836;28;20189;-71
2022/01/23 03:47:13;;;;;;;27.33;13.75;;;5.20;99.90;;;5.34;83.04;102510.59;5031685;28;20212;-73
2022/01/23 03:49:41;;;;;;;16.77;9.60;;;5.20;99.90;;;5.27;82.77;102504.06;5030650;28;20651;-72
2022/01/23 03:52:29;;;;;;;24.55;12.38;;;5.20;99.90;;;5.27;83.64;102516.63;5030661;28;20552;-72
2022/01/23 03:54:58;;;;;;;21.80;11.55;;;5.20;99.90;;;5.32;83.33;102512.56;5033000;28;20182;-71
2022/01/23 03:57:27;;;;;;;12.80;8.50;;;5.20;99.90;;;5.21;83.28;102517.97;5034356;28;20185;-73
2022/01/23 03:59:57;;;;;;;28.48;13.05;;;5.20;99.90;;;5.21;83.48;102515.28;5037406;28;20260;-72
2022/01/23 04:02:26;;;;;;;18.90;10.05;;;5.20;99.90;;;5.30;82.85;102516.34;5038664;28;20197;-71
2022/01/23 04:04:55;;;;;;;24.25;11.18;;;5.20;99.90;;;5.31;83.18;102518.91;5047890;28;20185;-72
2022/01/23 04:07:26;;;;;;;14.90;8.43;;;5.20;99.90;;;5.21;82.98;102526.88;5055586;28;20209;-71
2022/01/23 04:09:55;;;;;;;25.30;12.88;;;5.20;99.90;;;5.21;83.36;102526.88;5054085;28;20181;-71
2022/01/23 04:12:37;;;;;;;16.83;10.23;;;5.20;99.90;;;5.28;83.47;102537.13;5052819;28;20243;-72
2022/01/23 04:15:16;;;;;;;15.20;8.95;;;5.20;99.90;;;5.22;83.64;102525.06;5054854;28;20233;-72
2022/01/23 04:20:50;;;;;;;16.15;8.95;;;5.20;99.90;;;5.23;83.98;102540.16;4995839;28;20222;-72
2022/01/23 04:32:05;;;;;;;30.33;12.23;;;5.20;99.90;;;5.40;83.83;102545.00;5024179;28;20193;-72
2022/01/23 04:34:49;;;;;;;28.67;11.13;;;5.30;99.90;;;5.34;83.49;102532.06;5033763;28;20204;-72
2022/01/23 04:45:39;;;;;;;27.92;13.85;;;5.20;99.90;;;5.21;84.24;102534.09;5033604;28;20181;-72
2022/01/23 05:02:13;;;;;;;27.67;11.88;;;5.10;99.90;;;5.21;84.11;102547.50;5072888;28;20178;-68
2022/01/23 05:05:27;;;;;;;25.27;12.68;;;5.10;99.90;;;5.30;83.78;102552.09;5073187;28;20219;-69
2022/01/23 05:08:06;;;;;;;22.08;12.13;;;5.20;99.90;;;5.24;83.43;102553.47;5072855;28;20714;-70
2022/01/23 05:10:52;;;;;;;21.63;9.02;;;5.20;99.90;;;5.29;83.80;102550.41;5070657;28;20726;-70
2022/01/23 05:13:32;;;;;;;21.52;10.27;;;5.20;99.90;;;5.21;84.00;102555.56;5070844;28;20184;-69
2022/01/23 05:16:00;;;;;;;21.17;12.23;;;5.20;99.90;;;5.29;83.68;102555.75;5070694;28;20223;-70
2022/01/23 05:18:29;;;;;;;23.60;12.32;;;5.20;99.90;;;5.36;83.56;102564.16;5052283;28;20200;-68
2022/01/23 05:21:09;;;;;;;26.98;12.60;;;5.20;99.90;;;5.31;83.67;102561.88;5050880;28;20193;-69
2022/01/23 05:23:38;;;;;;;27.38;12.70;;;5.20;99.90;;;5.30;83.96;102573.59;5052077;28;20264;-69
2022/01/23 05:26:06;;;;;;;31.70;15.05;;;5.20;99.90;;;5.35;83.89;102576.75;5050810;28;20283;-68
2022/01/23 05:28:35;;;;;;;36.35;14.73;;;5.20;99.90;;;5.30;84.12;102578.94;5051750;28;20224;-68
2022/01/23 05:31:03;;;;;;;18.95;10.70;;;5.30;99.90;;;5.34;84.31;102580.41;5052012;28;20179;-69
2022/01/23 05:33:31;;;;;;;14.25;8.60;;;5.30;99.90;;;5.40;83.77;102585.25;5050204;28;20223;-70
2022/01/23 05:36:08;;;;;;;23.73;12.05;;;5.30;99.90;;;5.39;83.53;102577.31;5051758;28;20207;-70
2022/01/23 05:38:37;;;;;;;27.00;13.60;;;5.30;99.90;;;5.29;84.07;102579.91;5050538;28;20216;-71
2022/01/23 05:41:06;;;;;;;31.63;16.33;;;5.30;99.90;;;5.37;83.94;102572.09;5050168;28;20193;-68
2022/01/23 05:43:35;;;;;;;30.23;13.63;;;5.30;99.90;;;5.37;83.69;102580.16;5050123;28;20192;-68
2022/01/23 05:46:04;;;;;;;20.30;10.35;;;5.30;99.90;;;5.43;83.18;102574.25;5050329;28;20208;-69
2022/01/23 05:48:36;;;;;;;13.20;8.55;;;5.30;99.90;;;5.35;83.31;102579.41;5052193;28;20216;-70
2022/01/23 05:51:16;;;;;;;19.95;10.35;;;5.30;99.90;;;5.41;83.74;102589.66;5050607;28;20291;-70
2022/01/23 05:54:14;;;;;;;13.40;8.27;;;5.30;99.90;;;5.41;83.43;102580.75;5014243;28;20683;-70
2022/01/23 05:57:09;;;;;;;17.60;9.57;;;5.40;99.90;;;5.41;83.61;102581.59;5049836;28;20192;-69
2022/01/23 05:59:58;;;;;;;24.10;11.50;;;5.40;99.90;;;5.27;83.92;102587.28;5052567;28;20270;-71
2022/01/23 06:02:26;;;;;;;12.02;9.43;;;5.20;99.90;;;5.35;83.87;102587.47;5054661;28;20284;-69
2022/01/23 06:04:55;;;;;;;11.85;9.13;;;5.30;99.90;;;5.30;83.79;102592.38;5054758;28;20197;-70
2022/01/23 06:07:37;;;;;;;11.20;8.00;;;5.30;99.90;;;5.35;83.82;102592.84;5052362;28;20208;-71
2022/01/23 06:10:07;;;;;;;11.45;8.30;;;5.30;99.90;;;5.29;83.70;102601.41;5053298;28;20238;-70
2022/01/23 06:12:36;;;;;;;12.75;9.05;;;5.20;99.90;;;5.27;83.68;102603.38;5053019;28;20223;-69
2022/01/23 06:15:06;;;;;;;11.68;7.68;;;5.20;99.90;;;5.33;83.74;102610.03;5051322;28;20307;-69
2022/01/23 06:17:34;;;;;;;14.50;9.30;;;5.20;99.90;;;5.27;84.20;102598.00;5066033;28;20230;-69
2022/01/23 06:20:35;;;;;;;12.40;9.70;;;5.20;99.90;;;5.37;83.89;102606.16;5037937;28;20207;-70
2022/01/23 06:23:31;;;;;;;15.27;9.60;;;5.30;99.90;;;5.40;83.94;102616.63;5055092;28;20234;-70
2022/01/23 06:26:12;;;;;;;11.70;8.35;;;5.30;99.90;;;5.38;83.63;102608.69;5069872;28;20259;-69
2022/01/23 06:28:55;;;;;;;11.77;9.23;;;5.30;99.90;;;5.36;84.08;102610.66;5069517;28;20223;-69
2022/01/23 06:31:24;;;;;;;14.13;9.77;;;5.30;99.90;;;5.39;84.21;102609.53;5070611;28;20191;-69
2022/01/23 06:33:53;;;;;;;15.85;9.70;;;5.30;99.90;;;5.30;83.78;102610.31;5058645;28;20250;-69
2022/01/23 06:36:21;;;;;;;14.40;10.20;;;5.30;99.90;;;5.34;84.20;102622.50;5048739;28;20188;-69
2022/01/23 06:38:51;;;;;;;13.02;9.98;;;5.20;99.90;;;5.36;84.02;102607.97;5048931;28;20225;-69
2022/01/23 06:41:20;;;;;;;15.13;9.93;;;5.30;99.90;;;5.42;84.21;102610.13;5048987;28;20238;-69
2022/01/23 06:44:06;;;;;;;15.88;10.10;;;5.30;99.90;;;5.42;83.72;102618.19;5048997;28;20275;-69
2022/01/23 06:46:39;;;;;;;17.02;9.27;;;5.40;99.90;;;5.45;84.44;102615.28;5049381;28;20196;-71
2022/01/23 06:49:10;;;;;;;15.13;10.18;;;5.30;99.90;;;5.48;83.85;102615.00;5049086;28;20259;-70
2022/01/23 06:51:42;;;;;;;12.93;9.27;;;5.40;99.90;;;5.51;83.26;102609.41;5048865;28;20200;-70
2022/01/23 06:54:12;;;;;;;14.20;9.82;;;5.40;99.90;;;5.48;83.90;102612.31;5050613;28;20214;-71
2022/01/23 06:56:41;;;;;;;14.73;10.63;;;5.40;99.90;;;5.52;83.70;102611.06;5049370;28;20251;-70
2022/01/23 06:59:09;;;;;;;12.55;9.52;;;5.40;99.90;;;5.61;83.27;102621.09;5049181;28;20691;-69
2022/01/23 07:01:42;;;;;;;15.85;11.07;;;5.50;99.90;;;5.50;83.96;102613.06;5049207;28;20609;-69
2022/01/23 07:04:37;;;;;;;14.00;10.73;;;5.40;99.90;;;5.48;83.82;102620.38;5048669;28;20204;-70
2022/01/23 07:07:19;;;;;;;14.20;9.45;;;5.40;99.90;;;5.71;85.03;102615.78;5050262;28;20678;-70
2022/01/23 07:09:49;;;;;;;15.15;10.10;;;5.50;99.90;;;5.82;83.42;102629.16;5051031;28;20219;-69
2022/01/23 07:12:33;;;;;;;14.23;10.75;;;5.70;99.90;;;5.69;83.46;102634.72;5049705;28;20189;-69
2022/01/23 07:15:25;;;;;;;13.00;9.13;;;5.60;99.90;;;5.41;83.50;102632.63;5048414;28;20192;-71
2022/01/23 07:18:18;;;;;;;12.27;10.10;;;5.40;99.90;;;5.45;83.50;102639.44;5049671;28;20210;-69
2022/01/23 07:21:06;;;;;;;12.75;9.10;;;5.40;99.90;;;5.66;83.78;102634.94;5049797;28;20278;-70
2022/01/23 07:23:37;;;;;;;13.10;8.90;;;5.60;99.90;;;5.49;83.38;102635.50;5048820;28;20662;-70
2022/01/23 07:26:07;;;;;;;13.52;10.32;;;5.50;99.90;;;5.91;82.73;102643.66;5048810;28;20632;-70
2022/01/23 07:28:41;;;;;;;13.20;9.48;;;5.70;99.90;;;6.10;82.86;102650.03;5048182;28;20243;-70
2022/01/23 07:31:10;;;;;;;12.70;9.13;;;5.90;99.90;;;6.24;81.57;102650.72;5048653;28;20188;-69
2022/01/23 07:33:39;;;;;;;13.07;8.98;;;6.10;99.90;;;6.08;81.84;102656.56;5049249;28;20207;-69
2022/01/23 07:36:08;;;;;;;12.32;8.98;;;6.00;99.90;;;5.94;81.69;102668.47;5048439;28;20592;-71
2022/01/23 07:38:36;;;;;;;10.52;7.95;;;6.00;99.90;;;6.20;81.33;102668.94;5049769;28;20351;-69
2022/01/23 07:41:25;;;;;;;11.90;8.45;;;6.10;99.90;;;6.03;81.85;102674.91;5048783;28;20192;-70
2022/01/23 07:44:08;;;;;;;11.10;8.93;;;6.00;99.90;;;5.92;81.80;102666.88;5048574;28;20683;-69
2022/01/23 07:46:54;;;;;;;11.48;8.77;;;5.90;99.90;;;5.85;82.58;102676.41;5048851;28;20239;-69
2022/01/23 07:49:52;;;;;;;13.05;9.68;;;5.80;99.90;;;5.76;82.79;102678.03;4999093;28;20309;-72
2022/01/23 07:52:35;;;;;;;14.25;8.55;;;5.70;99.90;;;5.78;82.85;102675.22;5049113;28;20682;-70
2022/01/23 07:55:14;;;;;;;12.38;8.85;;;5.70;99.90;;;5.80;83.08;102673.25;5049374;28;20193;-69
2022/01/23 07:58:13;;;;;;;13.38;9.35;;;5.70;99.90;;;5.92;82.25;102675.81;5049816;28;20219;-70
2022/01/23 08:01:06;;;;;;;29.27;18.40;;;5.80;99.90;;;5.81;82.23;102678.50;5050335;28;20191;-69
2022/01/23 08:03:49;;;;;;;11.73;9.35;;;5.80;99.90;;;5.99;82.28;102677.00;5054222;28;20193;-69
2022/01/23 08:06:21;;;;;;;12.95;8.70;;;5.80;99.90;;;6.13;81.97;102683.91;5054358;28;20725;-69
2022/01/23 08:09:07;;;;;;;10.10;8.05;;;5.90;99.90;;;6.16;81.97;102680.09;5056107;28;20243;-70
2022/01/23 08:11:40;;;;;;;10.85;7.70;;;6.00;99.90;;;6.37;81.20;102684.50;5057016;28;20192;-69
2022/01/23 08:14:10;;;;;;;12.35;8.40;;;6.10;99.90;;;6.23;81.12;102682.13;5057417;28;20181;-70
2022/01/23 08:16:39;;;;;;;11.30;7.70;;;6.10;99.90;;;6.30;81.40;102687.81;5058033;28;20377;-70
2022/01/23 08:19:07;;;;;;;10.35;8.00;;;6.10;99.90;;;6.35;81.11;102694.53;5049444;28;20460;-69
2022/01/23 08:21:35;;;;;;;9.48;7.63;;;6.20;99.90;;;6.27;81.11;102691.63;5049306;28;20531;-72
2022/01/23 08:24:04;;;;;;;11.18;8.57;;;6.20;99.90;;;6.43;81.07;102689.34;5049760;28;20180;-70
2022/01/23 08:26:33;;;;;;;7.40;5.93;;;6.20;99.90;;;6.45;80.65;102695.44;5049942;28;20632;-71
2022/01/23 08:29:01;;;;;;;11.20;6.90;;;6.30;99.90;;;6.67;80.42;102707.06;5049543;28;20262;-72
2022/01/23 08:31:31;;;;;;;13.23;7.50;;;6.40;99.90;;;6.54;80.38;102701.84;5050003;28;20265;-71
2022/01/23 08:34:00;;;;;;;9.77;7.35;;;6.40;99.90;;;6.36;80.95;102698.91;5051195;28;20169;-70
2022/01/23 08:36:29;;;;;;;10.02;7.20;;;6.40;99.90;;;6.34;81.56;102706.25;5052061;28;20196;-71
2022/01/23 08:38:59;;;;;;;8.98;7.55;;;6.20;99.90;;;6.36;82.03;102708.81;5050894;28;20209;-70
2022/01/23 08:44:13;;;;;;;11.88;8.75;;;6.30;99.90;;;6.51;80.88;102704.81;5050911;28;20173;-72
2022/01/23 08:46:43;;;;;;;9.40;6.43;;;6.30;99.90;;;6.32;80.74;102708.25;5054641;28;20230;-70
2022/01/23 08:49:12;;;;;;;10.13;8.13;;;6.30;99.90;;;6.26;81.69;102703.38;5054394;28;20707;-70
2022/01/23 08:51:40;;;;;;;10.75;7.47;;;6.20;99.90;;;6.41;80.82;102712.81;5055433;28;20204;-72
2022/01/23 08:54:09;;;;;;;9.35;7.13;;;6.30;99.90;;;6.34;80.76;102711.63;5054124;28;20173;-71
2022/01/23 08:56:37;;;;;;;14.40;6.18;;;6.30;99.90;;;6.15;81.06;102719.56;5053145;28;20193;-70
2022/01/23 08:59:06;;;;;;;8.50;6.35;;;6.20;99.90;;;6.16;81.68;102718.56;5052987;28;20196;-69
2022/01/23 09:01:35;;;;;;;6.22;5.40;;;6.10;99.90;;;6.21;81.39;102726.25;5052313;28;20192;-69
2022/01/23 09:04:07;;;;;;;8.27;6.43;;;6.10;99.90;;;5.98;82.01;102725.50;5052588;28;20790;-70
2022/01/23 09:06:35;;;;;;;8.50;7.03;;;6.00;99.90;;;6.10;82.47;102719.94;5053670;28;20173;-69
2022/01/23 09:09:06;;;;;;;9.50;7.63;;;6.10;99.90;;;6.39;81.75;102722.03;5055418;28;20212;-71
2022/01/23 09:11:51;;;;;;;7.50;5.97;;;6.20;99.90;;;6.49;81.15;102731.84;5053666;28;20231;-70
2022/01/23 09:14:20;;;;;;;10.95;7.35;;;6.30;99.90;;;6.31;81.87;102733.41;5054168;28;20177;-71
2022/01/23 09:16:52;;;;;;;10.68;6.82;;;6.20;99.90;;;6.35;81.29;102729.47;5052816;28;20177;-70
2022/01/23 09:19:25;;;;;;;9.25;6.18;;;6.30;99.90;;;6.28;81.77;102731.00;5051940;28;20208;-71
2022/01/23 09:21:56;;;;;;;7.35;6.57;;;6.20;99.90;;;6.39;81.48;102741.69;5065839;28;20403;-70
2022/01/23 09:24:27;;;;;;;10.25;6.00;;;6.30;99.90;;;6.36;81.55;102730.34;5072983;28;20190;-69
2022/01/23 09:27:02;;;;;;;9.68;6.32;;;6.30;99.90;;;6.44;81.43;102739.44;5074100;28;20177;-71
2022/01/23 09:29:35;;;;;;;9.48;7.22;;;6.30;99.90;;;6.42;81.68;102741.44;5073778;28;20217;-71
2022/01/23 09:32:10;;;;;;;8.50;5.60;;;6.40;99.90;;;6.33;81.59;102747.59;5075958;28;20661;-71
2022/01/23 09:34:42;;;;;;;10.88;7.63;;;6.30;99.90;;;6.53;81.68;102746.72;5077910;28;20486;-69
2022/01/23 09:37:14;;;;;;;8.27;6.03;;;6.40;99.90;;;6.47;81.41;102743.72;5073281;28;20613;-69
2022/01/23 09:39:46;;;;;;;10.18;7.38;;;6.40;99.90;;;6.38;81.97;102747.22;5075462;28;20204;-70
2022/01/23 09:42:18;;;;;;;8.82;6.75;;;6.30;99.90;;;6.53;81.57;102743.22;5075946;28;20230;-70
2022/01/23 09:44:51;;;;;;;10.63;6.97;;;6.40;99.90;;;6.57;81.35;102743.78;5073719;28;20184;-69
2022/01/23 09:47:22;;;;;;;8.32;6.47;;;6.50;99.90;;;6.87;80.68;102742.00;5074308;28;20311;-71
2022/01/23 09:49:54;;;;;;;9.40;7.60;;;6.60;99.90;;;6.91;80.35;102739.91;5075004;28;20196;-69
2022/01/23 09:52:29;;;;;;;10.55;6.50;;;6.70;99.90;;;6.70;80.25;102741.75;5074593;28;20187;-69
2022/01/23 09:55:06;;;;;;;10.13;7.47;;;6.60;99.90;;;6.77;80.98;102745.63;5074098;28;20179;-69
2022/01/23 09:57:38;;;;;;;10.68;8.40;;;6.60;99.90;;;7.01;80.21;102748.88;5071501;28;20172;-70
2022/01/23 10:00:11;;;;;;;7.90;5.70;;;6.70;99.90;;;6.84;80.62;102750.34;5071215;28;20168;-70
2022/01/23 10:02:41;;;;;;;10.70;7.93;;;6.80;99.90;;;6.83;81.07;102740.56;5070994;28;20546;-71
2022/01/23 10:05:12;;;;;;;7.38;5.35;;;6.70;99.90;;;6.66;81.06;102754.63;5071021;28;20192;-70
2022/01/23 10:07:42;;;;;;;9.93;6.68;;;6.60;99.90;;;6.68;81.24;102746.44;5071170;28;21916;-70
2022/01/23 10:10:17;;;;;;;8.57;6.65;;;6.60;99.90;;;6.46;81.37;102759.00;5070639;28;20227;-70
2022/01/23 10:12:50;;;;;;;8.55;6.35;;;6.50;99.90;;;6.44;81.80;102758.28;5071111;28;20175;-71
2022/01/23 10:15:20;;;;;;;6.30;5.18;;;6.50;99.90;;;6.46;81.42;102759.00;5070941;28;20210;-69
2022/01/23 10:17:49;;;;;;;7.00;6.22;;;6.50;99.90;;;6.65;81.48;102758.28;5071153;28;20738;-71
2022/01/23 10:20:19;;;;;;;9.82;8.32;;;6.50;99.90;;;6.64;81.26;102767.34;5071002;28;20224;-70
2022/01/23 10:22:51;;;;;;;8.68;6.40;;;6.50;99.90;;;6.71;80.63;102765.84;5071595;28;20540;-69
2022/01/23 10:25:23;;;;;;;10.75;7.85;;;6.60;99.90;;;6.99;80.15;102748.16;5076385;28;20833;-71
2022/01/23 10:28:02;;;;;;;7.80;6.10;;;6.80;99.90;;;7.00;79.34;102747.19;5076215;28;20240;-71
2022/01/23 10:30:37;;;;;;;8.57;6.20;;;6.80;99.90;;;7.07;79.45;102742.94;5072899;28;20208;-71
2022/01/23 10:33:10;;;;;;;10.77;6.53;;;6.90;99.90;;;7.05;79.58;102739.53;5064759;28;20207;-72
2022/01/23 10:36:03;;;;;;;8.95;6.22;;;6.90;99.90;;;6.89;80.04;102733.78;5064303;28;20679;-71
2022/01/23 10:38:35;;;;;;;11.40;7.50;;;6.80;99.90;;;7.14;80.15;102744.13;5062053;28;20375;-71
2022/01/23 10:41:25;;;;;;;12.20;8.13;;;6.90;99.90;;;7.46;78.84;102733.16;5064224;28;20185;-70
2022/01/23 10:47:44;;;;;;;9.63;7.57;;;7.30;99.90;;;7.54;77.81;102736.06;5053752;28;20248;-70
2022/01/23 10:50:12;;;;;;;7.75;6.68;;;7.40;99.90;;;7.05;78.47;102736.84;5050929;28;20295;-70
2022/01/23 10:52:45;;;;;;;7.57;6.40;;;7.20;99.90;;;6.96;79.38;102729.59;5055976;28;20199;-71
2022/01/23 10:55:27;;;;;;;9.98;7.07;;;7.00;99.90;;;6.88;79.70;102732.06;5064562;28;20235;-71
2022/01/23 10:57:58;;;;;;;10.45;7.15;;;6.90;99.90;;;6.95;79.27;102738.66;5051371;28;20228;-70
2022/01/23 11:00:32;;;;;;;8.88;6.90;;;6.90;99.90;;;6.91;79.86;102742.59;5067005;28;20176;-71
2022/01/23 11:03:14;;;;;;;29.10;22.45;;;6.90;99.90;;;7.02;80.15;102744.34;5050628;28;20200;-71
2022/01/23 11:05:44;;;;;;;9.93;6.88;;;6.90;99.90;;;6.84;80.46;102744.09;5050929;28;20223;-70
2022/01/23 11:08:25;;;;;;;9.38;7.05;;;6.80;99.90;;;7.22;79.90;102746.13;5049979;28;20208;-71
2022/01/23 11:10:56;;;;;;;8.30;7.07;;;7.00;99.90;;;7.49;79.42;102753.63;5048876;28;20216;-70
2022/01/23 11:19:19;;;;;;;8.98;7.53;;;7.30;99.90;;;7.55;79.04;102745.00;5069761;28;20622;-70
2022/01/23 11:21:48;;;;;;;9.35;6.65;;;7.40;99.90;;;7.75;78.75;102746.72;5067634;28;20551;-69
2022/01/23 11:24:23;;;;;;;11.57;6.22;;;7.50;99.90;;;7.75;77.59;102738.63;5057524;28;20551;-69
2022/01/23 11:27:01;;;;;;;9.52;5.68;;;7.50;99.90;;;7.62;77.38;102743.44;5055750;28;20706;-71
2022/01/23 11:29:31;;;;;;;8.48;5.28;;;7.60;99.90;;;7.74;78.05;102736.94;5050081;28;20262;-70
2022/01/23 11:32:00;;;;;;;13.07;11.80;;;7.60;99.90;;;7.67;77.67;102743.88;5050524;28;20585;-70
2022/01/23 11:34:30;;;;;;;6.30;4.85;;;7.60;99.90;;;7.60;77.72;102745.44;5053283;28;20188;-70
2022/01/23 11:36:58;;;;;;;7.00;5.05;;;7.60;99.90;;;7.45;77.99;102744.97;5055361;28;20203;-69
2022/01/23 11:39:39;;;;;;;9.48;7.85;;;7.50;99.90;;;7.34;78.98;102745.91;5054284;28;20221;-70
2022/01/23 11:50:45;;;;;;;7.88;5.10;;;7.40;99.90;;;7.56;78.49;102741.28;5032721;28;20660;-70
2022/01/23 11:53:50;;;;;;;6.15;5.35;;;7.40;99.90;;;7.76;77.88;102737.66;5050540;28;20181;-71
2022/01/23 11:56:44;;;;;;;6.47;5.28;;;7.60;99.90;;;7.58;77.54;102742.88;5050454;28;20227;-70
2022/01/23 11:59:50;;;;;;;10.60;5.72;;;7.40;99.90;;;7.45;78.14;102746.81;5051301;28;20193;-71
2022/01/23 12:05:24;;;;;;;7.30;5.70;;;7.30;99.90;;;7.40;79.54;102755.28;5047601;28;20250;-70
2022/01/23 12:08:30;;;;;;;15.73;6.30;;;7.30;99.90;;;7.52;79.34;102754.19;5049720;28;20209;-71
2022/01/23 12:17:41;;;;;;;6.43;4.43;;;7.60;99.90;;;7.66;79.23;102756.50;5065520;28;20188;-70
2022/01/23 12:20:12;;;;;;;10.35;4.85;;;7.50;99.90;;;7.82;78.54;102746.03;5067442;28;20184;-69
2022/01/23 12:22:54;;;;;;;6.82;3.38;;;7.60;99.90;;;7.66;77.86;102756.50;5075226;28;20177;-72
2022/01/23 12:25:30;;;;;;;7.65;3.72;;;7.60;99.90;;;7.74;78.19;102750.44;5075104;28;20180;-71
2022/01/23 12:28:22;;;;;;;5.43;3.95;;;7.50;99.90;;;7.86;77.95;102747.47;5074652;28;20215;-70
2022/01/23 12:30:56;;;;;;;6.90;5.05;;;7.60;99.90;;;8.00;77.35;102748.88;5078468;28;20196;-70
2022/01/23 12:33:48;;;;;;;6.28;4.75;;;7.80;99.90;;;7.89;77.87;102740.91;5078374;28;20190;-72
2022/01/23 12:36:27;;;;;;;7.47;5.40;;;7.80;99.90;;;7.74;78.14;102736.94;5076990;28;20172;-69
2022/01/23 12:38:58;;;;;;;7.90;6.03;;;7.70;99.90;;;7.55;79.15;102739.59;5074369;28;20203;-70
2022/01/23 12:41:32;;;;;;;6.35;4.68;;;7.50;99.90;;;7.48;79.73;102730.34;5074438;28;20180;-70
2022/01/23 12:44:05;;;;;;;4.97;3.95;;;7.40;99.90;;;7.47;79.22;102744.81;5073890;28;20171;-69
2022/01/23 12:46:42;;;;;;;8.15;6.05;;;7.50;99.90;;;7.46;79.90;102748.47;5072579;28;20222;-70
2022/01/23 12:49:26;;;;;;;6.22;5.10;;;7.40;99.90;;;7.41;79.75;102747.06;5075294;28;20215;-72
2022/01/23 12:52:15;;;;;;;6.05;4.07;;;7.30;99.90;;;7.34;79.79;102740.53;5081905;28;20212;-71
2022/01/23 12:55:00;;;;;;;6.47;5.72;;;7.30;99.90;;;7.36;79.84;102733.13;5082056;28;20263;-70
2022/01/23 12:57:37;;;;;;;5.70;5.05;;;7.30;99.90;;;7.25;79.67;102733.25;5082127;28;20192;-69
2022/01/23 13:00:16;;;;;;;10.85;7.20;;;7.30;99.90;;;7.34;80.45;102735.13;5079107;28;20188;-72
2022/01/23 13:02:46;;;;;;;9.15;6.85;;;7.30;99.90;;;7.42;79.72;102743.38;5075462;28;20568;-70
2022/01/23 13:05:17;;;;;;;6.63;5.80;;;7.30;99.90;;;7.20;80.37;102748.13;5075447;28;20234;-71
2022/01/23 13:08:02;;;;;;;6.47;5.28;;;7.20;99.90;;;7.01;80.72;102738.13;5077828;28;20239;-71
2022/01/23 13:10:53;;;;;;;8.30;6.72;;;7.10;99.90;;;6.89;81.40;102734.66;5079875;28;20210;-69